Aviation Digital Data Service (ADDS)

Output produced by METARs form (1356 UTC 19 August 2019)
found at http://aviationweather.gov/metar/data/
 
METAR text: KFFZ 191354Z 03005KT 10SM CLR 29/04 A2991 RMK AO2 SLP100 T02890044
Conditions at: KFFZ (MESA/FALCON FLD , AZ, US) observed 1354 UTC 19 August 2019
Temperature: 28.9°C (84°F)
Dewpoint: 4.4°C (40°F) [RH = 21%]
Pressure (altimeter): 29.91 inches Hg (1013.0 mb)
[Sea-level pressure: 1010.0 mb]
Winds: from the NNE (30 degrees) at 6 MPH (5 knots; 2.6 m/s)
Visibility: 10 or more miles (16+ km)
Ceiling: at least 12,000 feet AGL
Clouds: sky clear below 12,000 feet AGL
Weather: no significant weather observed at this time

METAR text: KIWA 191347Z 12007KT 10SM FEW250 25/08 A2992
Conditions at: KIWA (CHANDLER/MESA , AZ, US) observed 1347 UTC 19 August 2019
Temperature: 25.0°C (77°F)
Dewpoint: 8.0°C (46°F) [RH = 34%]
Pressure (altimeter): 29.92 inches Hg (1013.3 mb)
Winds: from the ESE (120 degrees) at 8 MPH (7 knots; 3.6 m/s)
Visibility: 10 or more miles (16+ km)
Ceiling: at least 12,000 feet AGL
Clouds: few clouds at 25000 feet AGL
Weather: no significant weather observed at this time

Forecast for: KIWA (CHANDLER/MESA , AZ, US)
Text: KIWA 191120Z 1912/2012 13006KT P6SM FEW250
Forecast period: 1200 to 1800 UTC 19 August 2019
Forecast type: FROM: standard forecast or significant change
Winds: from the SE (130 degrees) at 7 MPH (6 knots; 3.1 m/s)
Visibility: 6 or more miles 10+ km)
Ceiling: at least 12,000 feet AGL
Clouds: few clouds at 25000 feet AGL
Weather: no significant weather forecast for this period
Text: FM191800 29005KT P6SM FEW140 FEW250
Forecast period: 1800 UTC 19 August 2019 to 0600 UTC 20 August 2019
Forecast type: FROM: standard forecast or significant change
Winds: from the WNW (290 degrees) at 6 MPH (5 knots; 2.6 m/s)
Visibility: 6 or more miles 10+ km)
Ceiling: at least 12,000 feet AGL
Clouds: few clouds at 14000 feet AGL
few clouds at 25000 feet AGL
Weather: no significant weather forecast for this period
Text: FM200600 12007KT P6SM SCT150 SCT250
Forecast period: 0600 to 1200 UTC 20 August 2019
Forecast type: FROM: standard forecast or significant change
Winds: from the ESE (120 degrees) at 8 MPH (7 knots; 3.6 m/s)
Visibility: 6 or more miles 10+ km)
Ceiling: at least 12,000 feet AGL
Clouds: scattered clouds at 15000 feet AGL
scattered clouds at 25000 feet AGL
Weather: no significant weather forecast for this period